sensor_id;sensor_type;location;lat;lon;timestamp;pressure;altitude;pressure_sealevel;temperature
74485;BMP280;62942;52.462;10.846;2023-04-01T00:00:57;98810;;;
74485;BMP280;62942;52.462;10.846;2023-04-01T00:02:07;98810;;;
74485;BMP280;62942;52.462;10.846;2023-04-01T00:03:17;98810;;;
74485;BMP280;62942;52.462;10.846;2023-04-01T00:04:26;98810;;;
74485;BMP280;62942;52.462;10.846;2023-04-01T00:05:36;98810;;;
74485;BMP280;62942;52.462;10.846;2023-04-01T00:06:47;98810;;;
74485;BMP280;62942;52.462;10.846;2023-04-01T00:07:47;98810;;;
74485;BMP280;62942;52.462;10.846;2023-04-01T00:08:57;98810;;;
74485;BMP280;62942;52.462;10.846;2023-04-01T00:09:57;98810;;;
74485;BMP280;62942;52.462;10.846;2023-04-01T00:11:06;98810;;;
74485;BMP280;62942;52.462;10.846;2023-04-01T00:12:06;98800;;;
74485;BMP280;62942;52.462;10.846;2023-04-01T00:13:07;98810;;;
74485;BMP280;62942;52.462;10.846;2023-04-01T00:14:17;98800;;;
74485;BMP280;62942;52.462;10.846;2023-04-01T00:15:26;98800;;;
74485;BMP280;62942;52.462;10.846;2023-04-01T00:16:37;98810;;;
74485;BMP280;62942;52.462;10.846;2023-04-01T00:17:36;98810;;;
74485;BMP280;62942;52.462;10.846;2023-04-01T00:18:38;98810;;;
74485;BMP280;62942;52.462;10.846;2023-04-01T00:19:47;98810;;;
74485;BMP280;62942;52.462;10.846;2023-04-01T00:20:49;98810;;;
74485;BMP280;62942;52.462;10.846;2023-04-01T00:21:56;98810;;;
74485;BMP280;62942;52.462;10.846;2023-04-01T00:23:06;98810;;;
74485;BMP280;62942;52.462;10.846;2023-04-01T00:24:16;98810;;;
74485;BMP280;62942;52.462;10.846;2023-04-01T00:25:27;98800;;;
74485;BMP280;62942;52.462;10.846;2023-04-01T00:26:27;98800;;;
74485;BMP280;62942;52.462;10.846;2023-04-01T00:27:36;98810;;;
74485;BMP280;62942;52.462;10.846;2023-04-01T00:28:36;98810;;;
74485;BMP280;62942;52.462;10.846;2023-04-01T00:29:47;98810;;;
74485;BMP280;62942;52.462;10.846;2023-04-01T00:30:56;98810;;;
74485;BMP280;62942;52.462;10.846;2023-04-01T00:32:06;98810;;;
74485;BMP280;62942;52.462;10.846;2023-04-01T00:33:06;98810;;;
74485;BMP280;62942;52.462;10.846;2023-04-01T00:34:16;98810;;;
74485;BMP280;62942;52.462;10.846;2023-04-01T00:35:17;98810;;;
74485;BMP280;62942;52.462;10.846;2023-04-01T00:36:26;98810;;;
74485;BMP280;62942;52.462;10.846;2023-04-01T00:37:27;98800;;;
74485;BMP280;62942;52.462;10.846;2023-04-01T00:38:37;98800;;;
74485;BMP280;62942;52.462;10.846;2023-04-01T00:39:37;98800;;;
74485;BMP280;62942;52.462;10.846;2023-04-01T00:40:46;98800;;;
74485;BMP280;62942;52.462;10.846;2023-04-01T00:41:47;98800;;;
74485;BMP280;62942;52.462;10.846;2023-04-01T00:42:57;98800;;;
74485;BMP280;62942;52.462;10.846;2023-04-01T00:44:11;98800;;;
74485;BMP280;62942;52.462;10.846;2023-04-01T00:45:23;98800;;;
74485;BMP280;62942;52.462;10.846;2023-04-01T00:46:17;98800;;;
74485;BMP280;62942;52.462;10.846;2023-04-01T00:47:26;98800;;;
74485;BMP280;62942;52.462;10.846;2023-04-01T00:48:27;98800;;;
74485;BMP280;62942;52.462;10.846;2023-04-01T00:49:37;98810;;;
74485;BMP280;62942;52.462;10.846;2023-04-01T00:50:47;98800;;;
74485;BMP280;62942;52.462;10.846;2023-04-01T00:51:47;98800;;;
74485;BMP280;62942;52.462;10.846;2023-04-01T00:52:57;98800;;;
74485;BMP280;62942;52.462;10.846;2023-04-01T00:53:57;98810;;;
74485;BMP280;62942;52.462;10.846;2023-04-01T00:54:57;98800;;;
74485;BMP280;62942;52.462;10.846;2023-04-01T00:56:07;98800;;;
74485;BMP280;62942;52.462;10.846;2023-04-01T00:57:07;98800;;;
74485;BMP280;62942;52.462;10.846;2023-04-01T00:58:17;98800;;;
74485;BMP280;62942;52.462;10.846;2023-04-01T00:59:27;98800;;;
74485;BMP280;62942;52.462;10.846;2023-04-01T01:00:36;98800;;;
74485;BMP280;62942;52.462;10.846;2023-04-01T01:01:46;98800;;;
74485;BMP280;62942;52.462;10.846;2023-04-01T01:02:56;98800;;;
74485;BMP280;62942;52.462;10.846;2023-04-01T01:04:06;98810;;;
74485;BMP280;62942;52.462;10.846;2023-04-01T01:05:17;98800;;;
74485;BMP280;62942;52.462;10.846;2023-04-01T01:06:19;98800;;;
74485;BMP280;62942;52.462;10.846;2023-04-01T01:07:20;98800;;;
74485;BMP280;62942;52.462;10.846;2023-04-01T01:08:28;98790;;;
74485;BMP280;62942;52.462;10.846;2023-04-01T01:09:38;98790;;;
74485;BMP280;62942;52.462;10.846;2023-04-01T01:10:47;98800;;;
74485;BMP280;62942;52.462;10.846;2023-04-01T01:11:58;98800;;;
74485;BMP280;62942;52.462;10.846;2023-04-01T01:12:58;98800;;;
74485;BMP280;62942;52.462;10.846;2023-04-01T01:13:58;98800;;;
74485;BMP280;62942;52.462;10.846;2023-04-01T01:15:09;98800;;;
74485;BMP280;62942;52.462;10.846;2023-04-01T01:16:17;98800;;;
74485;BMP280;62942;52.462;10.846;2023-04-01T01:17:19;98800;;;
74485;BMP280;62942;52.462;10.846;2023-04-01T01:18:18;98800;;;
74485;BMP280;62942;52.462;10.846;2023-04-01T01:19:33;98800;;;
74485;BMP280;62942;52.462;10.846;2023-04-01T01:21:30;98800;;;
74485;BMP280;62942;52.462;10.846;2023-04-01T01:21:34;98800;;;
74485;BMP280;62942;52.462;10.846;2023-04-01T01:22:32;98800;;;
74485;BMP280;62942;52.462;10.846;2023-04-01T01:23:42;98790;;;
74485;BMP280;62942;52.462;10.846;2023-04-01T01:24:42;98790;;;
74485;BMP280;62942;52.462;10.846;2023-04-01T01:25:47;98800;;;
74485;BMP280;62942;52.462;10.846;2023-04-01T01:26:59;98800;;;
74485;BMP280;62942;52.462;10.846;2023-04-01T01:28:12;98800;;;
74485;BMP280;62942;52.462;10.846;2023-04-01T01:30:19;98790;;;
74485;BMP280;62942;52.462;10.846;2023-04-01T01:30:31;98800;;;
74485;BMP280;62942;52.462;10.846;2023-04-01T01:31:37;98800;;;
74485;BMP280;62942;52.462;10.846;2023-04-01T01:32:53;98800;;;
74485;BMP280;62942;52.462;10.846;2023-04-01T01:33:50;98800;;;
74485;BMP280;62942;52.462;10.846;2023-04-01T01:35:04;98800;;;
74485;BMP280;62942;52.462;10.846;2023-04-01T01:36:06;98800;;;
74485;BMP280;62942;52.462;10.846;2023-04-01T01:37:08;98800;;;
74485;BMP280;62942;52.462;10.846;2023-04-01T01:38:17;98800;;;
74485;BMP280;62942;52.462;10.846;2023-04-01T01:39:27;98800;;;
74485;BMP280;62942;52.462;10.846;2023-04-01T01:40:36;98800;;;
74485;BMP280;62942;52.462;10.846;2023-04-01T01:41:46;98800;;;
74485;BMP280;62942;52.462;10.846;2023-04-01T01:42:57;98800;;;
74485;BMP280;62942;52.462;10.846;2023-04-01T01:43:56;98800;;;
74485;BMP280;62942;52.462;10.846;2023-04-01T01:45:07;98800;;;
74485;BMP280;62942;52.462;10.846;2023-04-01T01:46:17;98800;;;
74485;BMP280;62942;52.462;10.846;2023-04-01T01:47:26;98800;;;
74485;BMP280;62942;52.462;10.846;2023-04-01T01:48:36;98800;;;
74485;BMP280;62942;52.462;10.846;2023-04-01T01:49:36;98800;;;
74485;BMP280;62942;52.462;10.846;2023-04-01T01:50:46;98800;;;
74485;BMP280;62942;52.462;10.846;2023-04-01T01:51:56;98800;;;
74485;BMP280;62942;52.462;10.846;2023-04-01T01:53:08;98800;;;
74485;BMP280;62942;52.462;10.846;2023-04-01T01:54:17;98800;;;
74485;BMP280;62942;52.462;10.846;2023-04-01T01:55:27;98800;;;
74485;BMP280;62942;52.462;10.846;2023-04-01T01:56:36;98800;;;
74485;BMP280;62942;52.462;10.846;2023-04-01T01:57:46;98810;;;
74485;BMP280;62942;52.462;10.846;2023-04-01T01:58:58;98810;;;
74485;BMP280;62942;52.462;10.846;2023-04-01T01:59:58;98810;;;
74485;BMP280;62942;52.462;10.846;2023-04-01T02:01:07;98810;;;
74485;BMP280;62942;52.462;10.846;2023-04-01T02:02:16;98790;;;
74485;BMP280;62942;52.462;10.846;2023-04-01T02:03:16;98810;;;
74485;BMP280;62942;52.462;10.846;2023-04-01T02:04:26;98810;;;
74485;BMP280;62942;52.462;10.846;2023-04-01T02:05:36;98810;;;
74485;BMP280;62942;52.462;10.846;2023-04-01T02:06:47;98810;;;
74485;BMP280;62942;52.462;10.846;2023-04-01T02:07:58;98800;;;
74485;BMP280;62942;52.462;10.846;2023-04-01T02:08:57;98810;;;
74485;BMP280;62942;52.462;10.846;2023-04-01T02:10:06;98800;;;
74485;BMP280;62942;52.462;10.846;2023-04-01T02:11:17;98800;;;
74485;BMP280;62942;52.462;10.846;2023-04-01T02:12:16;98800;;;
74485;BMP280;62942;52.462;10.846;2023-04-01T02:13:27;98800;;;
74485;BMP280;62942;52.462;10.846;2023-04-01T02:14:37;98800;;;
74485;BMP280;62942;52.462;10.846;2023-04-01T02:15:47;98800;;;
74485;BMP280;62942;52.462;10.846;2023-04-01T02:16:49;98810;;;
74485;BMP280;62942;52.462;10.846;2023-04-01T02:17:56;98810;;;
74485;BMP280;62942;52.462;10.846;2023-04-01T02:19:06;98800;;;
74485;BMP280;62942;52.462;10.846;2023-04-01T02:20:17;98800;;;
74485;BMP280;62942;52.462;10.846;2023-04-01T02:21:27;98800;;;
74485;BMP280;62942;52.462;10.846;2023-04-01T02:22:37;98800;;;
74485;BMP280;62942;52.462;10.846;2023-04-01T02:23:46;98790;;;
74485;BMP280;62942;52.462;10.846;2023-04-01T02:24:57;98790;;;
74485;BMP280;62942;52.462;10.846;2023-04-01T02:26:07;98800;;;
74485;BMP280;62942;52.462;10.846;2023-04-01T02:27:16;98800;;;
74485;BMP280;62942;52.462;10.846;2023-04-01T02:28:26;98800;;;
74485;BMP280;62942;52.462;10.846;2023-04-01T02:29:36;98800;;;
74485;BMP280;62942;52.462;10.846;2023-04-01T02:30:46;98800;;;
74485;BMP280;62942;52.462;10.846;2023-04-01T02:31:56;98800;;;
74485;BMP280;62942;52.462;10.846;2023-04-01T02:32:57;98800;;;
74485;BMP280;62942;52.462;10.846;2023-04-01T02:33:56;98800;;;
74485;BMP280;62942;52.462;10.846;2023-04-01T02:35:07;98790;;;
74485;BMP280;62942;52.462;10.846;2023-04-01T02:36:16;98800;;;
74485;BMP280;62942;52.462;10.846;2023-04-01T02:37:17;98790;;;
74485;BMP280;62942;52.462;10.846;2023-04-01T02:38:26;98810;;;
74485;BMP280;62942;52.462;10.846;2023-04-01T02:39:26;98810;;;
74485;BMP280;62942;52.462;10.846;2023-04-01T02:40:44;98810;;;
74485;BMP280;62942;52.462;10.846;2023-04-01T02:41:40;98810;;;
74485;BMP280;62942;52.462;10.846;2023-04-01T02:42:46;98810;;;
74485;BMP280;62942;52.462;10.846;2023-04-01T02:43:56;98810;;;
74485;BMP280;62942;52.462;10.846;2023-04-01T02:45:07;98810;;;
74485;BMP280;62942;52.462;10.846;2023-04-01T02:46:06;98810;;;
74485;BMP280;62942;52.462;10.846;2023-04-01T02:47:16;98810;;;
74485;BMP280;62942;52.462;10.846;2023-04-01T02:48:16;98820;;;
74485;BMP280;62942;52.462;10.846;2023-04-01T02:49:26;98810;;;
74485;BMP280;62942;52.462;10.846;2023-04-01T02:50:36;98820;;;
74485;BMP280;62942;52.462;10.846;2023-04-01T02:51:36;98820;;;
74485;BMP280;62942;52.462;10.846;2023-04-01T02:52:46;98820;;;
74485;BMP280;62942;52.462;10.846;2023-04-01T02:53:46;98820;;;
74485;BMP280;62942;52.462;10.846;2023-04-01T02:54:56;98820;;;
74485;BMP280;62942;52.462;10.846;2023-04-01T02:56:06;98820;;;
74485;BMP280;62942;52.462;10.846;2023-04-01T02:57:06;98820;;;
74485;BMP280;62942;52.462;10.846;2023-04-01T02:58:16;98820;;;
74485;BMP280;62942;52.462;10.846;2023-04-01T02:59:16;98820;;;
74485;BMP280;62942;52.462;10.846;2023-04-01T03:00:26;98830;;;
74485;BMP280;62942;52.462;10.846;2023-04-01T03:01:36;98820;;;
74485;BMP280;62942;52.462;10.846;2023-04-01T03:02:46;98830;;;
74485;BMP280;62942;52.462;10.846;2023-04-01T03:03:46;98820;;;
74485;BMP280;62942;52.462;10.846;2023-04-01T03:04:56;98820;;;
74485;BMP280;62942;52.462;10.846;2023-04-01T03:05:56;98820;;;
74485;BMP280;62942;52.462;10.846;2023-04-01T03:07:06;98830;;;
74485;BMP280;62942;52.462;10.846;2023-04-01T03:08:16;98830;;;
74485;BMP280;62942;52.462;10.846;2023-04-01T03:09:26;98830;;;
74485;BMP280;62942;52.462;10.846;2023-04-01T03:10:36;98830;;;
74485;BMP280;62942;52.462;10.846;2023-04-01T03:11:36;98830;;;
74485;BMP280;62942;52.462;10.846;2023-04-01T03:12:36;98830;;;
74485;BMP280;62942;52.462;10.846;2023-04-01T03:13:46;98820;;;
74485;BMP280;62942;52.462;10.846;2023-04-01T03:14:56;98830;;;
74485;BMP280;62942;52.462;10.846;2023-04-01T03:16:06;98820;;;
74485;BMP280;62942;52.462;10.846;2023-04-01T03:17:16;98830;;;
74485;BMP280;62942;52.462;10.846;2023-04-01T03:18:16;98820;;;
74485;BMP280;62942;52.462;10.846;2023-04-01T03:19:26;98830;;;
74485;BMP280;62942;52.462;10.846;2023-04-01T03:20:26;98830;;;
74485;BMP280;62942;52.462;10.846;2023-04-01T03:21:36;98820;;;
74485;BMP280;62942;52.462;10.846;2023-04-01T03:22:46;98830;;;
74485;BMP280;62942;52.462;10.846;2023-04-01T03:23:46;98830;;;
74485;BMP280;62942;52.462;10.846;2023-04-01T03:24:56;98830;;;
74485;BMP280;62942;52.462;10.846;2023-04-01T03:25:56;98830;;;
74485;BMP280;62942;52.462;10.846;2023-04-01T03:26:56;98830;;;
74485;BMP280;62942;52.462;10.846;2023-04-01T03:28:06;98830;;;
74485;BMP280;62942;52.462;10.846;2023-04-01T03:29:16;98830;;;
74485;BMP280;62942;52.462;10.846;2023-04-01T03:30:26;98830;;;
74485;BMP280;62942;52.462;10.846;2023-04-01T03:31:26;98830;;;
74485;BMP280;62942;52.462;10.846;2023-04-01T03:32:36;98830;;;
74485;BMP280;62942;52.462;10.846;2023-04-01T03:33:46;98830;;;
74485;BMP280;62942;52.462;10.846;2023-04-01T03:34:46;98830;;;
74485;BMP280;62942;52.462;10.846;2023-04-01T03:35:56;98830;;;
74485;BMP280;62942;52.462;10.846;2023-04-01T03:37:06;98830;;;
74485;BMP280;62942;52.462;10.846;2023-04-01T03:38:16;98820;;;
74485;BMP280;62942;52.462;10.846;2023-04-01T03:39:16;98830;;;
74485;BMP280;62942;52.462;10.846;2023-04-01T03:40:26;98830;;;
74485;BMP280;62942;52.462;10.846;2023-04-01T03:41:36;98820;;;
74485;BMP280;62942;52.462;10.846;2023-04-01T03:42:46;98820;;;
74485;BMP280;62942;52.462;10.846;2023-04-01T03:43:56;98810;;;
74485;BMP280;62942;52.462;10.846;2023-04-01T03:44:56;98820;;;
74485;BMP280;62942;52.462;10.846;2023-04-01T03:46:06;98820;;;
74485;BMP280;62942;52.462;10.846;2023-04-01T03:47:16;98830;;;
74485;BMP280;62942;52.462;10.846;2023-04-01T03:48:26;98830;;;
74485;BMP280;62942;52.462;10.846;2023-04-01T03:49:36;98830;;;
74485;BMP280;62942;52.462;10.846;2023-04-01T03:50:46;98840;;;
74485;BMP280;62942;52.462;10.846;2023-04-01T03:51:56;98840;;;
74485;BMP280;62942;52.462;10.846;2023-04-01T03:52:56;98840;;;
74485;BMP280;62942;52.462;10.846;2023-04-01T03:53:56;98840;;;
74485;BMP280;62942;52.462;10.846;2023-04-01T03:55:06;98840;;;
74485;BMP280;62942;52.462;10.846;2023-04-01T03:56:16;98840;;;
74485;BMP280;62942;52.462;10.846;2023-04-01T03:57:26;98840;;;
74485;BMP280;62942;52.462;10.846;2023-04-01T03:58:36;98840;;;
74485;BMP280;62942;52.462;10.846;2023-04-01T03:59:46;98850;;;
74485;BMP280;62942;52.462;10.846;2023-04-01T04:00:56;98840;;;
74485;BMP280;62942;52.462;10.846;2023-04-01T04:02:06;98830;;;
74485;BMP280;62942;52.462;10.846;2023-04-01T04:03:16;98840;;;
74485;BMP280;62942;52.462;10.846;2023-04-01T04:04:26;98840;;;
74485;BMP280;62942;52.462;10.846;2023-04-01T04:05:36;98830;;;
74485;BMP280;62942;52.462;10.846;2023-04-01T04:06:36;98850;;;
74485;BMP280;62942;52.462;10.846;2023-04-01T04:07:46;98850;;;
74485;BMP280;62942;52.462;10.846;2023-04-01T04:08:46;98840;;;
74485;BMP280;62942;52.462;10.846;2023-04-01T04:09:56;98850;;;
74485;BMP280;62942;52.462;10.846;2023-04-01T04:11:06;98850;;;
74485;BMP280;62942;52.462;10.846;2023-04-01T04:12:16;98850;;;
74485;BMP280;62942;52.462;10.846;2023-04-01T04:13:16;98840;;;
74485;BMP280;62942;52.462;10.846;2023-04-01T04:14:26;98840;;;
74485;BMP280;62942;52.462;10.846;2023-04-01T04:15:36;98840;;;
74485;BMP280;62942;52.462;10.846;2023-04-01T04:16:46;98840;;;
74485;BMP280;62942;52.462;10.846;2023-04-01T04:17:56;98840;;;
74485;BMP280;62942;52.462;10.846;2023-04-01T04:19:06;98850;;;
74485;BMP280;62942;52.462;10.846;2023-04-01T04:20:16;98850;;;
74485;BMP280;62942;52.462;10.846;2023-04-01T04:21:26;98850;;;
74485;BMP280;62942;52.462;10.846;2023-04-01T04:22:26;98850;;;
74485;BMP280;62942;52.462;10.846;2023-04-01T04:23:36;98860;;;
74485;BMP280;62942;52.462;10.846;2023-04-01T04:24:46;98860;;;
74485;BMP280;62942;52.462;10.846;2023-04-01T04:25:54;98860;;;
74485;BMP280;62942;52.462;10.846;2023-04-01T04:26:56;98860;;;
74485;BMP280;62942;52.462;10.846;2023-04-01T04:28:06;98860;;;
74485;BMP280;62942;52.462;10.846;2023-04-01T04:29:16;98860;;;
74485;BMP280;62942;52.462;10.846;2023-04-01T04:30:26;98850;;;
74485;BMP280;62942;52.462;10.846;2023-04-01T04:31:36;98850;;;
74485;BMP280;62942;52.462;10.846;2023-04-01T04:32:46;98850;;;
74485;BMP280;62942;52.462;10.846;2023-04-01T04:33:46;98870;;;
74485;BMP280;62942;52.462;10.846;2023-04-01T04:34:56;98860;;;
74485;BMP280;62942;52.462;10.846;2023-04-01T04:36:06;98870;;;
74485;BMP280;62942;52.462;10.846;2023-04-01T04:37:16;98870;;;
74485;BMP280;62942;52.462;10.846;2023-04-01T04:38:26;98870;;;
74485;BMP280;62942;52.462;10.846;2023-04-01T04:39:36;98870;;;
74485;BMP280;62942;52.462;10.846;2023-04-01T04:40:46;98870;;;
74485;BMP280;62942;52.462;10.846;2023-04-01T04:41:56;98870;;;
74485;BMP280;62942;52.462;10.846;2023-04-01T04:43:06;98860;;;
74485;BMP280;62942;52.462;10.846;2023-04-01T04:44:16;98860;;;
74485;BMP280;62942;52.462;10.846;2023-04-01T04:45:26;98860;;;
74485;BMP280;62942;52.462;10.846;2023-04-01T04:46:36;98870;;;
74485;BMP280;62942;52.462;10.846;2023-04-01T04:47:46;98870;;;
74485;BMP280;62942;52.462;10.846;2023-04-01T04:48:46;98870;;;
74485;BMP280;62942;52.462;10.846;2023-04-01T04:49:56;98880;;;
74485;BMP280;62942;52.462;10.846;2023-04-01T04:50:56;98870;;;
74485;BMP280;62942;52.462;10.846;2023-04-01T04:52:06;98870;;;
74485;BMP280;62942;52.462;10.846;2023-04-01T04:53:17;98870;;;
74485;BMP280;62942;52.462;10.846;2023-04-01T04:54:26;98880;;;
74485;BMP280;62942;52.462;10.846;2023-04-01T04:55:26;98880;;;
74485;BMP280;62942;52.462;10.846;2023-04-01T04:56:26;98880;;;
74485;BMP280;62942;52.462;10.846;2023-04-01T04:57:26;98880;;;
74485;BMP280;62942;52.462;10.846;2023-04-01T04:58:26;98880;;;
74485;BMP280;62942;52.462;10.846;2023-04-01T04:59:36;98880;;;
74485;BMP280;62942;52.462;10.846;2023-04-01T05:00:46;98880;;;
74485;BMP280;62942;52.462;10.846;2023-04-01T05:01:46;98880;;;
74485;BMP280;62942;52.462;10.846;2023-04-01T05:02:56;98870;;;
74485;BMP280;62942;52.462;10.846;2023-04-01T05:03:56;98870;;;
74485;BMP280;62942;52.462;10.846;2023-04-01T05:04:56;98890;;;
74485;BMP280;62942;52.462;10.846;2023-04-01T05:05:56;98890;;;
74485;BMP280;62942;52.462;10.846;2023-04-01T05:07:06;98890;;;
74485;BMP280;62942;52.462;10.846;2023-04-01T05:08:06;98890;;;
74485;BMP280;62942;52.462;10.846;2023-04-01T05:09:16;98880;;;
74485;BMP280;62942;52.462;10.846;2023-04-01T05:10:16;98880;;;
74485;BMP280;62942;52.462;10.846;2023-04-01T05:11:16;98870;;;
74485;BMP280;62942;52.462;10.846;2023-04-01T05:12:26;98870;;;
74485;BMP280;62942;52.462;10.846;2023-04-01T05:13:36;98880;;;
74485;BMP280;62942;52.462;10.846;2023-04-01T05:14:46;98890;;;
74485;BMP280;62942;52.462;10.846;2023-04-01T05:15:46;98890;;;
74485;BMP280;62942;52.462;10.846;2023-04-01T05:16:56;98890;;;
74485;BMP280;62942;52.462;10.846;2023-04-01T05:17:56;98900;;;
74485;BMP280;62942;52.462;10.846;2023-04-01T05:18:56;98890;;;
74485;BMP280;62942;52.462;10.846;2023-04-01T05:20:06;98900;;;
74485;BMP280;62942;52.462;10.846;2023-04-01T05:21:16;98900;;;
74485;BMP280;62942;52.462;10.846;2023-04-01T05:22:26;98900;;;
74485;BMP280;62942;52.462;10.846;2023-04-01T05:23:36;98900;;;
74485;BMP280;62942;52.462;10.846;2023-04-01T05:24:46;98900;;;
74485;BMP280;62942;52.462;10.846;2023-04-01T05:25:56;98900;;;
74485;BMP280;62942;52.462;10.846;2023-04-01T05:27:06;98900;;;
74485;BMP280;62942;52.462;10.846;2023-04-01T05:28:16;98900;;;
74485;BMP280;62942;52.462;10.846;2023-04-01T05:29:16;98900;;;
74485;BMP280;62942;52.462;10.846;2023-04-01T05:30:26;98900;;;
74485;BMP280;62942;52.462;10.846;2023-04-01T05:31:36;98900;;;
74485;BMP280;62942;52.462;10.846;2023-04-01T05:32:36;98900;;;
74485;BMP280;62942;52.462;10.846;2023-04-01T05:33:46;98900;;;
74485;BMP280;62942;52.462;10.846;2023-04-01T05:34:46;98910;;;
74485;BMP280;62942;52.462;10.846;2023-04-01T05:35:46;98900;;;
74485;BMP280;62942;52.462;10.846;2023-04-01T05:36:46;98900;;;
74485;BMP280;62942;52.462;10.846;2023-04-01T05:37:56;98900;;;
74485;BMP280;62942;52.462;10.846;2023-04-01T05:39:06;98900;;;
74485;BMP280;62942;52.462;10.846;2023-04-01T05:40:16;98890;;;
74485;BMP280;62942;52.462;10.846;2023-04-01T05:41:16;98890;;;
74485;BMP280;62942;52.462;10.846;2023-04-01T05:42:26;98900;;;
74485;BMP280;62942;52.462;10.846;2023-04-01T05:43:26;98900;;;
74485;BMP280;62942;52.462;10.846;2023-04-01T05:44:36;98890;;;
74485;BMP280;62942;52.462;10.846;2023-04-01T05:45:46;98910;;;
74485;BMP280;62942;52.462;10.846;2023-04-01T05:46:56;98910;;;
74485;BMP280;62942;52.462;10.846;2023-04-01T05:47:56;98910;;;
74485;BMP280;62942;52.462;10.846;2023-04-01T05:49:06;98900;;;
74485;BMP280;62942;52.462;10.846;2023-04-01T05:50:16;98910;;;
74485;BMP280;62942;52.462;10.846;2023-04-01T05:51:26;98910;;;
74485;BMP280;62942;52.462;10.846;2023-04-01T05:52:36;98910;;;
74485;BMP280;62942;52.462;10.846;2023-04-01T05:53:46;98920;;;
74485;BMP280;62942;52.462;10.846;2023-04-01T05:54:56;98910;;;
74485;BMP280;62942;52.462;10.846;2023-04-01T05:55:56;98920;;;
74485;BMP280;62942;52.462;10.846;2023-04-01T05:57:06;98910;;;
74485;BMP280;62942;52.462;10.846;2023-04-01T05:58:06;98910;;;
74485;BMP280;62942;52.462;10.846;2023-04-01T05:59:06;98920;;;
74485;BMP280;62942;52.462;10.846;2023-04-01T06:00:16;98910;;;
74485;BMP280;62942;52.462;10.846;2023-04-01T06:01:26;98920;;;
74485;BMP280;62942;52.462;10.846;2023-04-01T06:02:26;98920;;;
74485;BMP280;62942;52.462;10.846;2023-04-01T06:03:36;98920;;;
74485;BMP280;62942;52.462;10.846;2023-04-01T06:04:37;98920;;;
74485;BMP280;62942;52.462;10.846;2023-04-01T06:05:46;98920;;;
74485;BMP280;62942;52.462;10.846;2023-04-01T06:06:56;98920;;;
74485;BMP280;62942;52.462;10.846;2023-04-01T06:07:58;98920;;;
74485;BMP280;62942;52.462;10.846;2023-04-01T06:09:07;98920;;;
74485;BMP280;62942;52.462;10.846;2023-04-01T06:10:09;98920;;;
74485;BMP280;62942;52.462;10.846;2023-04-01T06:11:11;98930;;;
74485;BMP280;62942;52.462;10.846;2023-04-01T06:12:20;98920;;;
74485;BMP280;62942;52.462;10.846;2023-04-01T06:13:30;98920;;;
74485;BMP280;62942;52.462;10.846;2023-04-01T06:14:37;98930;;;
74485;BMP280;62942;52.462;10.846;2023-04-01T06:15:36;98930;;;
74485;BMP280;62942;52.462;10.846;2023-04-01T06:16:39;98910;;;
74485;BMP280;62942;52.462;10.846;2023-04-01T06:17:51;98910;;;
74485;BMP280;62942;52.462;10.846;2023-04-01T06:18:59;98930;;;
74485;BMP280;62942;52.462;10.846;2023-04-01T06:20:07;98930;;;
74485;BMP280;62942;52.462;10.846;2023-04-01T06:21:22;98930;;;
74485;BMP280;62942;52.462;10.846;2023-04-01T06:22:22;98930;;;
74485;BMP280;62942;52.462;10.846;2023-04-01T06:23:32;98930;;;
74485;BMP280;62942;52.462;10.846;2023-04-01T06:24:30;98930;;;
74485;BMP280;62942;52.462;10.846;2023-04-01T06:25:38;98940;;;
74485;BMP280;62942;52.462;10.846;2023-04-01T06:26:37;98940;;;
74485;BMP280;62942;52.462;10.846;2023-04-01T06:27:41;98940;;;
74485;BMP280;62942;52.462;10.846;2023-04-01T06:28:39;98930;;;
74485;BMP280;62942;52.462;10.846;2023-04-01T06:29:41;98940;;;
74485;BMP280;62942;52.462;10.846;2023-04-01T06:30:46;98930;;;
74485;BMP280;62942;52.462;10.846;2023-04-01T06:32:01;98940;;;
74485;BMP280;62942;52.462;10.846;2023-04-01T06:32:59;98930;;;
74485;BMP280;62942;52.462;10.846;2023-04-01T06:34:10;98930;;;
74485;BMP280;62942;52.462;10.846;2023-04-01T06:35:18;98940;;;
74485;BMP280;62942;52.462;10.846;2023-04-01T06:36:43;98940;;;
74485;BMP280;62942;52.462;10.846;2023-04-01T06:37:43;98940;;;
74485;BMP280;62942;52.462;10.846;2023-04-01T06:38:40;98940;;;
74485;BMP280;62942;52.462;10.846;2023-04-01T06:39:54;98940;;;
74485;BMP280;62942;52.462;10.846;2023-04-01T06:40:50;98940;;;
74485;BMP280;62942;52.462;10.846;2023-04-01T06:41:59;98940;;;
74485;BMP280;62942;52.462;10.846;2023-04-01T06:43:07;98950;;;
74485;BMP280;62942;52.462;10.846;2023-04-01T06:44:16;98950;;;
74485;BMP280;62942;52.462;10.846;2023-04-01T06:45:20;98950;;;
74485;BMP280;62942;52.462;10.846;2023-04-01T06:46:29;98950;;;
74485;BMP280;62942;52.462;10.846;2023-04-01T06:47:39;98950;;;
74485;BMP280;62942;52.462;10.846;2023-04-01T06:48:50;98950;;;
74485;BMP280;62942;52.462;10.846;2023-04-01T06:49:48;98950;;;
74485;BMP280;62942;52.462;10.846;2023-04-01T06:50:48;98950;;;
74485;BMP280;62942;52.462;10.846;2023-04-01T06:51:58;98950;;;
74485;BMP280;62942;52.462;10.846;2023-04-01T06:53:07;98950;;;
74485;BMP280;62942;52.462;10.846;2023-04-01T06:54:08;98950;;;
74485;BMP280;62942;52.462;10.846;2023-04-01T06:55:12;98950;;;
74485;BMP280;62942;52.462;10.846;2023-04-01T06:56:06;98960;;;
74485;BMP280;62942;52.462;10.846;2023-04-01T06:57:19;98960;;;
74485;BMP280;62942;52.462;10.846;2023-04-01T06:58:18;98960;;;
74485;BMP280;62942;52.462;10.846;2023-04-01T06:59:16;98960;;;
74485;BMP280;62942;52.462;10.846;2023-04-01T07:00:19;98960;;;
74485;BMP280;62942;52.462;10.846;2023-04-01T07:01:16;98960;;;
74485;BMP280;62942;52.462;10.846;2023-04-01T07:02:29;98960;;;
74485;BMP280;62942;52.462;10.846;2023-04-01T07:03:26;98960;;;
74485;BMP280;62942;52.462;10.846;2023-04-01T07:04:37;98960;;;
74485;BMP280;62942;52.462;10.846;2023-04-01T07:05:36;98960;;;
74485;BMP280;62942;52.462;10.846;2023-04-01T07:06:47;98960;;;
74485;BMP280;62942;52.462;10.846;2023-04-01T07:07:47;98960;;;